Wednesday, August 15, 2018, 3:44 AM CDT
Back to Local

KORD, Chicago O'hare International

Location: Des Plaines, IL, United States Lat: 41.983
Local Time: 3:44 AM CDT ( 8:44 GMT) Lon: -87.917
Time Zone: US/Central Elev: 669 ft

Show me the last for .
Show Decoded

2018-08-15 02:51 METAR KORD 150751Z 20003KT 10SM OVC230 24/17 A2994 RMK AO2 SLP133 T02390172 =
2018-08-15 01:51 METAR KORD 150651Z 00000KT 9SM OVC240 24/17 A2993 RMK AO2 SLP130 T02440172 =
2018-08-15 00:51 METAR KORD 150551Z 21004KT 9SM OVC250 26/17 A2994 RMK AO2 SLP132 T02560167 10289
                 20256 403060217 56007 =
2018-08-14 23:51 METAR KORD 150451Z 20007KT 9SM OVC250 26/18 A2994 RMK AO2 SLP133 T02610178 =
2018-08-14 22:51 METAR KORD 150351Z 14003KT 9SM FEW200 OVC250 26/18 A2995 RMK AO2 SLP137
                 T02610178 =
2018-08-14 21:51 METAR KORD 150251Z 34003KT 10SM FEW200 OVC250 27/18 A2996 RMK AO2 SLP140
                 T02670178 53008 =
2018-08-14 20:51 METAR KORD 150151Z 00000KT 9SM FEW200 OVC250 28/17 A2995 RMK AO2 SLP135
                 T02780172 =
2018-08-14 19:51 METAR KORD 150051Z 29003KT 9SM FEW065 BKN250 28/17 A2994 RMK AO2 SLP133
                 T02780172 =
2018-08-14 18:51 METAR KORD 142351Z 29005KT 10SM FEW060 OVC250 29/16 A2994 RMK AO2 SLP132
                 T02890161 10306 20289 56005 =
2018-08-14 17:51 METAR KORD 142251Z 25006KT 10SM FEW060 OVC250 30/16 A2994 RMK AO2 SLP134
                 T03000161 =
2018-08-14 16:51 METAR KORD 142151Z 26005KT 9SM SCT060 BKN250 30/17 A2995 RMK AO2 SLP135
                 T03000172 =
2018-08-14 15:51 METAR KORD 142051Z 22006KT 9SM SCT065 BKN250 30/17 A2995 RMK AO2 SLP138
                 T03000172 56012 =
2018-08-14 14:51 METAR KORD 141951Z 29003KT 10SM SCT055 BKN250 30/17 A2996 RMK AO2 SLP141
                 T03000167 =
2018-08-14 13:51 METAR KORD 141851Z 24009KT 10SM SCT055 BKN250 30/17 A2998 RMK AO2 SLP146
                 T03000167 =
2018-08-14 12:51 METAR KORD 141751Z 23006KT 10SM SCT050 SCT250 29/17 A2999 RMK AO2 SLP150
                 T02940172 10300 20222 56004 $ =
2018-08-14 11:51 METAR KORD 141651Z 27006KT 10SM FEW050 FEW250 29/17 A2999 RMK AO2 SLP151
                 T02940172 $ =
2018-08-14 10:51 METAR KORD 141551Z 26005KT 10SM CLR 28/17 A3000 RMK AO2 SLP154 T02830172 $ =
2018-08-14 09:51 METAR KORD 141451Z 26007KT 10SM CLR 27/18 A3000 RMK AO2 SLP155 T02720178 50001 $
                 =
2018-08-14 08:51 METAR KORD 141351Z 24005KT 9SM CLR 26/17 A3001 RMK AO2 SLP156 T02560172 $ =
2018-08-14 07:51 METAR KORD 141251Z 26003KT 9SM FEW050 23/17 A3000 RMK AO2 SLP155 T02330172 $ =
2018-08-14 06:51 METAR KORD 141151Z 24005KT 6SM HZ CLR 22/17 A3000 RMK AO2 SLP154 T02220167 10239
                 20217 53004 $ =
2018-08-14 05:51 METAR KORD 141051Z 26005KT 8SM CLR 22/17 A3000 RMK AO2 SLP153 T02170167 $ =
2018-08-14 04:51 METAR KORD 140951Z 26003KT 9SM CLR 22/16 A2999 RMK AO2 SLP150 T02170161 $ =
2018-08-14 03:51 METAR KORD 140851Z 25004KT 10SM CLR 22/16 A2999 RMK AO2 SLP149 T02220161 $ =

Support USWX by starting your Amazon purchase here.